createdAt,value
2022-11-28T00:01:22.672Z,65.94
2022-11-28T00:03:50.302Z,66.14
2022-11-28T00:06:17.994Z,66.11
2022-11-28T00:08:45.467Z,66.46
2022-11-28T00:11:13.999Z,66.01
2022-11-28T00:13:41.458Z,66.24
2022-11-28T00:16:09.399Z,66.84
2022-11-28T00:18:37.018Z,66.87
2022-11-28T00:21:06.223Z,66.54
2022-11-28T00:23:33.739Z,66.30
2022-11-28T00:26:11.385Z,66.51
2022-11-28T00:28:38.745Z,66.58
2022-11-28T00:31:06.521Z,66.96
2022-11-28T00:33:33.950Z,67.19
2022-11-28T00:36:02.158Z,66.90
2022-11-28T00:38:29.749Z,66.06
2022-11-28T00:41:07.023Z,67.52
2022-11-28T00:43:34.657Z,67.34
2022-11-28T00:46:02.752Z,67.25
2022-11-28T00:48:30.157Z,67.22
2022-11-28T00:51:05.519Z,67.21
2022-11-28T00:53:32.839Z,66.30
2022-11-28T00:56:00.430Z,67.22
2022-11-28T00:58:27.745Z,68.31
2022-11-28T01:00:55.146Z,68.34
2022-11-28T01:03:22.782Z,67.88
2022-11-28T01:05:50.105Z,67.72
2022-11-28T01:08:17.447Z,66.70
2022-11-28T01:10:45.307Z,66.56
2022-11-28T01:13:12.634Z,67.56
2022-11-28T01:15:40.919Z,68.34
2022-11-28T01:18:08.849Z,68.14
2022-11-28T01:20:36.179Z,68.18
2022-11-28T01:23:03.545Z,69.35
2022-11-28T01:25:31.172Z,69.87
2022-11-28T01:27:58.487Z,69.84
2022-11-28T01:30:25.809Z,68.51
2022-11-28T01:32:53.438Z,68.36
2022-11-28T01:35:20.771Z,68.08
2022-11-28T01:37:48.106Z,68.39
2022-11-28T01:40:15.663Z,67.71
2022-11-28T01:42:42.988Z,67.65
2022-11-28T01:45:24.151Z,67.66
2022-11-28T01:47:52.120Z,67.86
2022-11-28T01:50:19.731Z,66.89
2022-11-28T01:52:48.232Z,67.43
2022-11-28T01:55:15.830Z,67.27
2022-11-28T01:57:43.156Z,67.64
2022-11-28T02:00:16.958Z,67.83
2022-11-28T02:02:47.909Z,67.22
2022-11-28T02:05:16.360Z,67.71
2022-11-28T02:07:44.175Z,67.90
2022-11-28T02:10:13.967Z,67.81
2022-11-28T02:13:09.047Z,67.53
2022-11-28T02:15:39.169Z,67.69
2022-11-28T02:18:29.065Z,67.26
2022-11-28T02:21:55.016Z,68.75
2022-11-28T02:24:57.787Z,68.38
2022-11-28T02:27:38.787Z,68.33
2022-11-28T02:30:12.995Z,67.97
2022-11-28T02:32:53.033Z,68.26
2022-11-28T02:35:44.903Z,68.25
2022-11-28T02:38:30.703Z,68.18
2022-11-28T02:41:06.987Z,68.27
2022-11-28T02:43:52.395Z,68.67
2022-11-28T02:46:27.638Z,68.12
2022-11-28T02:49:14.651Z,68.36
2022-11-28T02:51:44.743Z,68.40
2022-11-28T02:54:13.042Z,68.86
2022-11-28T02:56:50.014Z,69.10
2022-11-28T02:59:36.506Z,69.18
2022-11-28T03:02:28.852Z,68.94
2022-11-28T03:05:17.927Z,69.36
2022-11-28T03:08:04.176Z,69.02
2022-11-28T03:10:45.083Z,69.31
2022-11-28T03:13:32.078Z,69.35
2022-11-28T03:16:23.183Z,69.53
2022-11-28T03:19:02.945Z,69.63
2022-11-28T03:21:33.752Z,69.21
2022-11-28T03:24:02.963Z,69.16
2022-11-28T03:26:45.337Z,69.01
2022-11-28T03:29:16.387Z,69.02
2022-11-28T03:31:47.939Z,69.19
2022-11-28T03:34:16.636Z,69.13
2022-11-28T03:37:07.226Z,68.89
2022-11-28T03:39:37.124Z,68.76
2022-11-28T03:42:10.603Z,68.20
2022-11-28T03:45:00.880Z,68.72
2022-11-28T03:47:31.401Z,68.65
2022-11-28T03:50:01.702Z,68.03
2022-11-28T03:52:32.448Z,68.69
2022-11-28T03:55:02.222Z,68.86
2022-11-28T03:57:35.534Z,68.69
2022-11-28T04:00:08.141Z,68.52
2022-11-28T04:02:46.652Z,68.27
2022-11-28T04:05:46.635Z,68.07
2022-11-28T04:08:18.087Z,68.81
2022-11-28T04:10:57.057Z,68.56
2022-11-28T04:13:43.857Z,68.38
2022-11-28T04:16:21.853Z,68.38
2022-11-28T04:19:06.554Z,67.61
2022-11-28T04:22:21.905Z,67.17
2022-11-28T04:24:52.157Z,67.47
2022-11-28T04:27:24.239Z,67.69
2022-11-28T04:29:53.967Z,67.43
2022-11-28T04:32:21.769Z,67.96
2022-11-28T04:34:52.431Z,67.78
2022-11-28T04:37:19.779Z,67.58
2022-11-28T04:39:48.087Z,67.34
2022-11-28T04:42:17.823Z,67.71
2022-11-28T04:44:54.665Z,67.58
2022-11-28T04:47:22.770Z,67.65
2022-11-28T04:49:50.206Z,67.02
2022-11-28T04:52:24.891Z,66.83
2022-11-28T04:55:10.299Z,67.63
2022-11-28T04:57:39.328Z,67.55
2022-11-28T05:00:13.071Z,67.17
2022-11-28T05:02:40.988Z,67.09
2022-11-28T05:05:10.147Z,67.79
2022-11-28T05:07:37.528Z,66.76
2022-11-28T05:10:06.099Z,67.48
2022-11-28T05:12:33.697Z,67.68
2022-11-28T05:15:01.004Z,67.76
2022-11-28T05:17:28.350Z,67.66
2022-11-28T05:19:55.970Z,68.20
2022-11-28T05:22:23.341Z,67.67
2022-11-28T05:24:50.727Z,66.13
2022-11-28T05:27:18.319Z,66.49
2022-11-28T05:29:51.971Z,67.18
2022-11-28T05:32:20.207Z,67.36
2022-11-28T05:34:47.599Z,67.18
2022-11-28T05:37:14.944Z,66.67
2022-11-28T05:39:42.803Z,67.00
2022-11-28T05:42:10.299Z,68.55
2022-11-28T05:44:37.659Z,67.82
2022-11-28T05:47:05.290Z,68.59
2022-11-28T05:49:32.596Z,68.23
2022-11-28T05:52:00.094Z,67.99
2022-11-28T05:54:27.713Z,67.95
2022-11-28T05:56:55.057Z,67.60
2022-11-28T05:59:22.412Z,68.04
2022-11-28T06:01:50.011Z,68.06
2022-11-28T06:04:17.672Z,67.66
2022-11-28T06:06:45.204Z,67.58
2022-11-28T06:09:12.698Z,67.40
2022-11-28T06:11:40.370Z,67.87
2022-11-28T06:14:07.685Z,67.02
2022-11-28T06:16:35.042Z,66.02
2022-11-28T06:19:03.825Z,66.44
2022-11-28T06:21:31.606Z,66.49
2022-11-28T06:23:59.305Z,65.85
2022-11-28T06:26:27.412Z,66.40
2022-11-28T06:28:58.258Z,67.35
2022-11-28T06:31:30.355Z,67.34
2022-11-28T06:33:58.350Z,67.40
2022-11-28T06:36:26.418Z,67.83
2022-11-28T06:38:54.282Z,67.23
2022-11-28T06:41:24.519Z,67.18
2022-11-28T06:43:51.871Z,67.02
2022-11-28T06:46:20.497Z,66.87
2022-11-28T06:48:49.085Z,66.40
2022-11-28T06:51:16.501Z,66.82
2022-11-28T06:53:43.837Z,66.74
2022-11-28T06:56:14.116Z,66.95
2022-11-28T06:58:41.794Z,67.14
2022-11-28T07:01:14.211Z,66.70
2022-11-28T07:03:41.968Z,66.59
2022-11-28T07:06:09.538Z,66.65
2022-11-28T07:08:37.044Z,65.10
2022-11-28T07:11:16.422Z,66.04
2022-11-28T07:13:45.892Z,66.25
2022-11-28T07:16:17.971Z,66.14
2022-11-28T07:18:45.360Z,64.92
2022-11-28T07:21:14.629Z,65.67
2022-11-28T07:23:42.743Z,64.75
2022-11-28T07:26:10.513Z,64.27
2022-11-28T07:28:38.107Z,64.63
2022-11-28T07:31:27.848Z,64.92
2022-11-28T07:33:55.468Z,63.90
2022-11-28T07:36:26.896Z,64.00
2022-11-28T07:38:55.884Z,64.55
2022-11-28T07:41:26.521Z,65.06
2022-11-28T07:43:56.165Z,64.46
2022-11-28T07:46:24.075Z,64.27
2022-11-28T07:48:51.610Z,63.08
2022-11-28T07:51:23.394Z,63.82
2022-11-28T07:53:51.088Z,64.11
2022-11-28T07:56:20.541Z,63.65
2022-11-28T07:58:47.960Z,63.03
2022-11-28T08:01:17.195Z,64.00
2022-11-28T08:03:44.858Z,63.95
2022-11-28T08:06:14.272Z,63.96
2022-11-28T08:08:41.684Z,63.65
2022-11-28T08:11:09.491Z,64.18
2022-11-28T08:13:37.385Z,63.97
2022-11-28T08:16:06.673Z,63.66
2022-11-28T08:18:35.125Z,63.12
2022-11-28T08:21:07.026Z,62.66
2022-11-28T08:23:34.732Z,63.34
2022-11-28T08:26:02.870Z,63.64
2022-11-28T08:28:30.314Z,63.57
2022-11-28T08:30:59.466Z,62.40
2022-11-28T08:33:26.956Z,63.07
2022-11-28T08:35:54.264Z,62.90
2022-11-28T08:38:21.914Z,63.51
2022-11-28T08:40:49.286Z,62.95
2022-11-28T08:43:16.770Z,62.40
2022-11-28T08:45:44.426Z,63.64
2022-11-28T08:48:11.806Z,62.16
2022-11-28T08:50:45.031Z,61.02
2022-11-28T08:53:18.521Z,61.31
2022-11-28T08:55:46.144Z,61.74
2022-11-28T08:58:13.947Z,60.96
2022-11-28T09:00:42.601Z,60.95
2022-11-28T09:03:19.348Z,60.96
2022-11-28T09:05:47.209Z,61.06
2022-11-28T09:08:15.718Z,61.07
2022-11-28T09:10:43.798Z,60.73
2022-11-28T09:13:11.655Z,60.40
2022-11-28T09:15:42.520Z,60.82
2022-11-28T09:18:09.988Z,59.75
2022-11-28T09:20:37.629Z,60.06
2022-11-28T09:23:05.437Z,59.58
2022-11-28T09:25:35.335Z,57.83
2022-11-28T09:28:02.920Z,58.76
2022-11-28T09:30:30.349Z,58.23
2022-11-28T09:32:57.698Z,58.09
2022-11-28T09:35:25.310Z,57.80
2022-11-28T09:37:52.687Z,57.45
2022-11-28T09:40:40.452Z,58.39
2022-11-28T09:43:38.431Z,58.18
2022-11-28T09:46:07.444Z,58.19
2022-11-28T09:48:51.044Z,58.60
2022-11-28T09:51:31.726Z,58.96
2022-11-28T09:54:14.016Z,57.81
2022-11-28T09:56:41.427Z,58.74
2022-11-28T09:59:21.159Z,59.09
2022-11-28T10:02:02.862Z,66.53
2022-11-28T10:04:56.744Z,66.46
2022-11-28T10:07:39.981Z,63.27
2022-11-28T10:10:29.547Z,65.12
2022-11-28T10:13:11.653Z,60.00
2022-11-28T10:15:59.855Z,61.86
2022-11-28T10:18:39.274Z,60.13
2022-11-28T10:21:29.976Z,58.24
2022-11-28T10:23:59.359Z,58.74
2022-11-28T10:26:32.229Z,59.37
2022-11-28T10:29:00.264Z,61.54
2022-11-28T10:31:36.574Z,61.35
2022-11-28T10:34:21.160Z,60.45
2022-11-28T10:37:01.214Z,58.80
2022-11-28T10:39:28.612Z,58.58
2022-11-28T10:42:12.082Z,58.38
2022-11-28T10:45:05.163Z,57.25
2022-11-28T10:47:51.138Z,57.62
2022-11-28T10:50:35.287Z,59.29
2022-11-28T10:53:25.741Z,58.38
2022-11-28T10:56:06.149Z,57.93
2022-11-28T10:58:50.306Z,56.54
2022-11-28T11:01:17.686Z,55.30
2022-11-28T11:03:45.321Z,55.92
2022-11-28T11:06:13.059Z,56.47
2022-11-28T11:08:40.846Z,56.73
2022-11-28T11:11:30.356Z,57.49
2022-11-28T11:14:10.599Z,57.17
2022-11-28T11:16:47.538Z,56.25
2022-11-28T11:19:30.711Z,55.79
2022-11-28T11:22:21.893Z,55.18
2022-11-28T11:25:15.349Z,55.28
2022-11-28T11:27:59.870Z,54.72
2022-11-28T11:30:38.825Z,58.53
2022-11-28T11:33:07.218Z,56.70
2022-11-28T11:35:35.837Z,56.21
2022-11-28T11:38:21.317Z,56.18
2022-11-28T11:40:49.645Z,55.80
2022-11-28T11:43:23.029Z,55.68
2022-11-28T11:46:04.660Z,57.01
2022-11-28T11:48:39.880Z,56.41
2022-11-28T11:51:20.646Z,56.23
2022-11-28T11:53:47.985Z,56.20
2022-11-28T11:56:15.577Z,56.88
2022-11-28T11:58:51.289Z,58.63
2022-11-28T12:01:19.018Z,58.57
2022-11-28T12:03:53.538Z,60.54
2022-11-28T12:06:23.606Z,60.42
2022-11-28T12:08:58.112Z,60.26
2022-11-28T12:11:27.642Z,61.57
2022-11-28T12:13:55.778Z,60.16
2022-11-28T12:16:32.120Z,59.14
2022-11-28T12:19:18.243Z,59.92
2022-11-28T12:22:12.119Z,60.21
2022-11-28T12:24:52.949Z,60.20
2022-11-28T12:27:31.960Z,57.71
2022-11-28T12:30:19.328Z,60.48
2022-11-28T12:33:08.451Z,58.64
2022-11-28T12:35:40.975Z,58.23
2022-11-28T12:38:26.676Z,61.70
2022-11-28T12:41:32.571Z,58.56
2022-11-28T12:44:18.863Z,58.59
2022-11-28T12:47:08.133Z,62.99
2022-11-28T12:50:11.703Z,61.57
2022-11-28T12:52:49.396Z,58.85
2022-11-28T12:55:16.765Z,59.49
2022-11-28T12:57:49.278Z,58.33
2022-11-28T13:00:19.997Z,60.46
2022-11-28T13:03:08.616Z,59.57
2022-11-28T13:05:44.169Z,60.53
2022-11-28T13:08:49.374Z,58.12
2022-11-28T13:11:35.301Z,58.89
2022-11-28T13:14:31.550Z,58.27
2022-11-28T13:17:07.395Z,58.48
2022-11-28T13:19:48.945Z,58.80
2022-11-28T13:22:24.176Z,57.57
2022-11-28T13:25:27.323Z,58.17
2022-11-28T13:27:57.694Z,58.62
2022-11-28T13:30:26.516Z,61.44
2022-11-28T13:32:59.971Z,61.74
2022-11-28T13:35:27.867Z,62.06
2022-11-28T13:41:18.095Z,61.28
2022-11-28T13:44:07.984Z,62.02
2022-11-28T13:46:35.694Z,60.90
2022-11-28T13:49:15.247Z,59.69
2022-11-28T13:51:43.259Z,58.39
2022-11-28T13:54:22.854Z,59.80
2022-11-28T13:57:12.488Z,60.76
2022-11-28T13:59:39.893Z,62.11
2022-11-28T14:02:32.589Z,62.79
2022-11-28T14:05:00.404Z,60.91
2022-11-28T14:07:32.148Z,60.39
2022-11-28T14:10:24.215Z,62.25
2022-11-28T14:13:29.732Z,58.73
2022-11-28T14:16:11.416Z,61.51
2022-11-28T14:19:09.663Z,60.97
2022-11-28T14:21:49.498Z,62.33
2022-11-28T14:24:41.347Z,63.14
2022-11-28T14:27:15.785Z,61.62
2022-11-28T14:29:43.208Z,61.77
2022-11-28T14:32:40.631Z,62.10
2022-11-28T14:35:37.996Z,63.08
2022-11-28T14:38:31.304Z,61.37
2022-11-28T14:41:00.210Z,61.80
2022-11-28T14:43:32.642Z,62.03
2022-11-28T14:46:16.061Z,61.35
2022-11-28T14:48:58.940Z,62.01
2022-11-28T14:51:48.298Z,61.89
2022-11-28T14:54:57.348Z,63.16
2022-11-28T14:57:38.081Z,63.11
2022-11-28T15:00:08.137Z,62.72
2022-11-28T15:02:48.734Z,62.53
2022-11-28T15:05:34.982Z,63.08
2022-11-28T15:08:14.944Z,64.35
2022-11-28T15:11:13.664Z,63.24
2022-11-28T15:13:50.561Z,64.07
2022-11-28T15:16:18.962Z,62.41
2022-11-28T15:18:49.046Z,63.69
2022-11-28T15:21:17.180Z,62.82
2022-11-28T15:23:46.966Z,63.44
2022-11-28T15:26:28.463Z,64.47
2022-11-28T15:29:24.522Z,63.48
2022-11-28T15:31:54.805Z,63.81
2022-11-28T15:34:33.586Z,64.86
2022-11-28T15:37:02.366Z,66.01
2022-11-28T15:39:39.936Z,67.58
2022-11-28T15:42:09.591Z,69.22
2022-11-28T15:44:37.778Z,70.05
2022-11-28T15:47:05.432Z,70.43
2022-11-28T15:49:34.273Z,70.34
2022-11-28T15:52:03.364Z,69.14
2022-11-28T15:54:38.219Z,68.18
2022-11-28T15:57:06.564Z,67.19
2022-11-28T15:59:34.113Z,66.55
2022-11-28T16:02:04.627Z,65.08
2022-11-28T16:04:32.268Z,66.66
2022-11-28T16:06:59.754Z,66.62
2022-11-28T16:09:33.894Z,66.55
2022-11-28T16:12:02.344Z,66.22
2022-11-28T16:14:36.368Z,66.19
2022-11-28T16:17:09.493Z,65.91
2022-11-28T16:19:37.297Z,65.78
2022-11-28T16:22:06.499Z,64.39
2022-11-28T16:24:43.293Z,65.46
2022-11-28T16:27:41.526Z,65.21
2022-11-28T16:30:29.816Z,65.67
2022-11-28T16:32:57.729Z,65.11
2022-11-28T16:35:28.955Z,65.74
2022-11-28T16:38:06.112Z,66.20
2022-11-28T16:40:33.451Z,67.60
2022-11-28T16:43:02.984Z,66.65
2022-11-28T16:45:33.389Z,66.28
2022-11-28T16:48:09.487Z,66.90
2022-11-28T16:50:36.924Z,66.18
2022-11-28T16:53:04.758Z,66.12
2022-11-28T16:55:32.371Z,65.60
2022-11-28T16:58:21.755Z,65.64
2022-11-28T17:00:58.193Z,66.12
2022-11-28T17:03:46.030Z,66.64
2022-11-28T17:06:19.276Z,65.98
2022-11-28T17:08:46.661Z,65.97
2022-11-28T17:11:14.600Z,65.13
2022-11-28T17:13:42.023Z,66.02
2022-11-28T17:16:27.804Z,65.62
2022-11-28T17:18:55.511Z,65.86
2022-11-28T17:21:43.224Z,65.46
2022-11-28T17:24:27.801Z,66.97
2022-11-28T17:26:55.189Z,67.56
2022-11-28T17:29:22.882Z,70.32
2022-11-28T17:31:50.289Z,68.35
2022-11-28T17:34:19.597Z,67.23
2022-11-28T17:36:47.918Z,68.53
2022-11-28T17:39:15.541Z,72.97
2022-11-28T17:41:43.116Z,71.64
2022-11-28T17:44:21.192Z,70.47
2022-11-28T17:46:52.237Z,70.12
2022-11-28T17:49:19.907Z,71.74
2022-11-28T17:51:49.201Z,71.22
2022-11-28T17:54:17.903Z,72.65
2022-11-28T17:56:47.310Z,73.15
2022-11-28T17:59:15.570Z,72.00
2022-11-28T18:01:44.140Z,70.46
2022-11-28T18:04:11.888Z,69.79
2022-11-28T18:06:39.383Z,69.56
2022-11-28T18:09:11.587Z,69.03
2022-11-28T18:11:40.655Z,69.02
2022-11-28T18:14:09.131Z,67.15
2022-11-28T18:16:36.747Z,67.90
2022-11-28T18:19:04.380Z,68.05
2022-11-28T18:21:32.390Z,68.85
2022-11-28T18:23:59.803Z,69.50
2022-11-28T18:26:27.470Z,68.97
2022-11-28T18:28:54.856Z,69.09
2022-11-28T18:31:24.487Z,68.91
2022-11-28T18:33:55.121Z,68.84
2022-11-28T18:36:25.974Z,69.97
2022-11-28T18:39:01.972Z,69.91
2022-11-28T18:41:29.368Z,69.87
2022-11-28T18:43:58.761Z,69.53
2022-11-28T18:46:26.723Z,71.36
2022-11-28T18:48:54.135Z,70.13
2022-11-28T18:51:23.761Z,70.42
2022-11-28T18:53:51.463Z,73.56
2022-11-28T18:56:19.214Z,74.90
2022-11-28T18:58:53.062Z,75.29
2022-11-28T19:01:25.523Z,71.81
2022-11-28T19:03:56.047Z,73.00
2022-11-28T19:06:23.771Z,72.70
2022-11-28T19:08:58.744Z,73.16
2022-11-28T19:11:28.541Z,71.71
2022-11-28T19:13:56.639Z,73.04
2022-11-28T19:16:25.988Z,70.85
2022-11-28T19:18:53.707Z,71.51
2022-11-28T19:21:22.836Z,69.76
2022-11-28T19:23:50.243Z,70.25
2022-11-28T19:26:19.690Z,69.84
2022-11-28T19:28:48.103Z,73.02
2022-11-28T19:31:17.155Z,71.22
2022-11-28T19:33:44.779Z,70.58
2022-11-28T19:36:13.236Z,69.62
2022-11-28T19:38:41.113Z,67.64
2022-11-28T19:41:13.677Z,68.17
2022-11-28T19:43:41.427Z,68.72
2022-11-28T19:46:09.510Z,68.57
2022-11-28T19:48:37.277Z,69.38
2022-11-28T19:51:04.979Z,68.96
2022-11-28T19:53:33.901Z,69.96
2022-11-28T19:56:05.552Z,70.93
2022-11-28T19:58:36.583Z,73.17
2022-11-28T20:01:08.663Z,71.06
2022-11-28T20:03:36.875Z,70.75
2022-11-28T20:06:11.778Z,72.48
2022-11-28T20:08:39.577Z,70.47
2022-11-28T20:11:08.754Z,72.11
2022-11-28T20:13:36.368Z,72.86
2022-11-28T20:16:05.010Z,72.20
2022-11-28T20:18:32.675Z,72.61
2022-11-28T20:21:12.919Z,71.47
2022-11-28T20:23:41.652Z,71.62
2022-11-28T20:26:09.290Z,72.51
2022-11-28T20:28:37.863Z,71.44
2022-11-28T20:31:06.019Z,72.54
2022-11-28T20:33:33.663Z,70.68
2022-11-28T20:36:08.204Z,69.66
2022-11-28T20:38:35.902Z,71.09
2022-11-28T20:41:04.704Z,74.10
2022-11-28T20:43:32.352Z,72.00
2022-11-28T20:46:16.447Z,70.99
2022-11-28T20:48:43.957Z,74.23
2022-11-28T20:51:13.140Z,70.94
2022-11-28T20:53:41.389Z,72.36
2022-11-28T20:56:11.506Z,71.63
2022-11-28T20:58:39.089Z,72.44
2022-11-28T21:01:06.545Z,75.07
2022-11-28T21:03:34.212Z,74.01
2022-11-28T21:06:01.913Z,71.07
2022-11-28T21:08:33.754Z,69.86
2022-11-28T21:11:05.922Z,70.90
2022-11-28T21:13:33.598Z,69.95
2022-11-28T21:16:08.886Z,71.50
2022-11-28T21:18:36.899Z,71.64
2022-11-28T21:21:11.839Z,74.06
2022-11-28T21:23:39.426Z,75.02
2022-11-28T21:26:09.245Z,73.52
2022-11-28T21:28:36.946Z,72.73
2022-11-28T21:31:09.354Z,70.65
2022-11-28T21:33:36.712Z,70.82
2022-11-28T21:36:04.610Z,73.04
2022-11-28T21:38:32.287Z,73.20
2022-11-28T21:40:59.616Z,74.13
2022-11-28T21:43:30.083Z,74.29
2022-11-28T21:46:04.621Z,75.40
2022-11-28T21:48:32.146Z,73.12
2022-11-28T21:50:59.904Z,75.27
2022-11-28T21:53:28.855Z,72.09
2022-11-28T21:55:56.224Z,70.02
2022-11-28T21:58:26.827Z,70.17
2022-11-28T22:01:01.876Z,69.21
2022-11-28T22:03:29.733Z,68.55
2022-11-28T22:06:01.809Z,67.10
2022-11-28T22:08:29.678Z,68.29
2022-11-28T22:11:03.619Z,68.61
2022-11-28T22:13:31.393Z,68.68
2022-11-28T22:15:59.002Z,70.23
2022-11-28T22:18:28.832Z,68.98
2022-11-28T22:21:06.483Z,69.24
2022-11-28T22:23:37.651Z,69.16
2022-11-28T22:26:05.620Z,69.52
2022-11-28T22:28:33.894Z,67.73
2022-11-28T22:31:08.776Z,68.33
2022-11-28T22:33:36.278Z,70.49
2022-11-28T22:36:08.618Z,66.51
2022-11-28T22:38:35.944Z,69.46
2022-11-28T22:41:10.908Z,69.03
2022-11-28T22:43:38.457Z,69.58
2022-11-28T22:46:06.376Z,70.36
2022-11-28T22:48:34.511Z,70.92
2022-11-28T22:51:11.876Z,72.68
2022-11-28T22:53:39.484Z,73.21
2022-11-28T22:56:11.281Z,73.83
2022-11-28T22:58:42.713Z,72.21
2022-11-28T23:01:17.287Z,72.69
2022-11-28T23:03:45.644Z,72.20
2022-11-28T23:06:15.065Z,70.83
2022-11-28T23:08:42.879Z,70.76
2022-11-28T23:11:15.459Z,69.07
2022-11-28T23:13:43.043Z,69.52
2022-11-28T23:16:24.650Z,69.66
2022-11-28T23:18:54.315Z,69.35
2022-11-28T23:21:22.781Z,74.15
2022-11-28T23:23:50.204Z,74.99
2022-11-28T23:26:19.413Z,72.70
2022-11-28T23:28:47.800Z,76.79
2022-11-28T23:31:25.724Z,74.57
2022-11-28T23:33:54.416Z,73.06
2022-11-28T23:36:23.681Z,72.17
2022-11-28T23:38:52.576Z,71.94
2022-11-28T23:41:20.178Z,74.04
2022-11-28T23:43:47.525Z,72.50
2022-11-28T23:46:15.156Z,71.22
2022-11-28T23:48:43.724Z,72.17
2022-11-28T23:51:12.836Z,71.70
2022-11-28T23:53:40.330Z,70.02
2022-11-28T23:56:24.383Z,74.45
2022-11-28T23:58:52.036Z,74.71
